sensor_id;sensor_type;location;lat;lon;timestamp;pressure;altitude;pressure_sealevel;temperature;humidity
54512;BME280;40419;47.438;19.026;2023-04-02T00:01:46;98808.84;;;8.59;100.00
54512;BME280;40419;47.438;19.026;2023-04-02T00:04:18;98814.69;;;8.49;100.00
54512;BME280;40419;47.438;19.026;2023-04-02T00:06:52;98806.16;;;8.59;100.00
54512;BME280;40419;47.438;19.026;2023-04-02T00:09:25;98821.94;;;8.56;100.00
54512;BME280;40419;47.438;19.026;2023-04-02T00:11:53;98819.44;;;8.54;100.00
54512;BME280;40419;47.438;19.026;2023-04-02T00:14:32;98818.47;;;8.48;100.00
54512;BME280;40419;47.438;19.026;2023-04-02T00:17:03;98820.91;;;8.43;100.00
54512;BME280;40419;47.438;19.026;2023-04-02T00:19:37;98819.25;;;8.42;100.00
54512;BME280;40419;47.438;19.026;2023-04-02T00:22:18;98825.50;;;8.36;100.00
54512;BME280;40419;47.438;19.026;2023-04-02T00:24:44;98815.97;;;8.40;100.00
54512;BME280;40419;47.438;19.026;2023-04-02T00:27:13;98833.19;;;8.46;100.00
54512;BME280;40419;47.438;19.026;2023-04-02T00:29:51;98834.81;;;8.47;100.00
54512;BME280;40419;47.438;19.026;2023-04-02T00:32:21;98830.66;;;8.58;100.00
54512;BME280;40419;47.438;19.026;2023-04-02T00:34:52;98824.03;;;8.54;100.00
54512;BME280;40419;47.438;19.026;2023-04-02T00:37:23;98836.06;;;8.51;100.00
54512;BME280;40419;47.438;19.026;2023-04-02T00:40:04;98832.72;;;8.56;100.00
54512;BME280;40419;47.438;19.026;2023-04-02T00:42:33;98821.66;;;8.71;100.00
54512;BME280;40419;47.438;19.026;2023-04-02T00:45:09;98829.50;;;8.79;100.00
54512;BME280;40419;47.438;19.026;2023-04-02T00:47:43;98836.53;;;8.80;100.00
54512;BME280;40419;47.438;19.026;2023-04-02T00:52:39;98839.88;;;8.75;100.00
54512;BME280;40419;47.438;19.026;2023-04-02T00:55:12;98841.56;;;8.69;100.00
54512;BME280;40419;47.438;19.026;2023-04-02T00:57:42;98840.16;;;8.60;100.00
54512;BME280;40419;47.438;19.026;2023-04-02T01:02:44;98846.16;;;8.69;100.00
54512;BME280;40419;47.438;19.026;2023-04-02T01:05:33;98838.09;;;8.62;100.00
54512;BME280;40419;47.438;19.026;2023-04-02T01:08:02;98843.50;;;8.62;100.00
54512;BME280;40419;47.438;19.026;2023-04-02T01:13:19;98840.59;;;8.64;100.00
54512;BME280;40419;47.438;19.026;2023-04-02T01:26:30;98834.13;;;8.65;100.00
54512;BME280;40419;47.438;19.026;2023-04-02T01:31:43;98829.59;;;8.59;100.00
54512;BME280;40419;47.438;19.026;2023-04-02T01:34:13;98831.47;;;8.58;100.00
54512;BME280;40419;47.438;19.026;2023-04-02T01:42:04;98838.25;;;8.74;100.00
54512;BME280;40419;47.438;19.026;2023-04-02T01:44:44;98840.31;;;8.79;100.00
54512;BME280;40419;47.438;19.026;2023-04-02T01:47:15;98836.81;;;8.65;100.00
54512;BME280;40419;47.438;19.026;2023-04-02T01:49:42;98846.31;;;8.81;100.00
54512;BME280;40419;47.438;19.026;2023-04-02T01:52:16;98845.69;;;8.79;100.00
54512;BME280;40419;47.438;19.026;2023-04-02T01:54:47;98835.63;;;8.61;100.00
54512;BME280;40419;47.438;19.026;2023-04-02T01:57:15;98847.66;;;8.58;100.00
54512;BME280;40419;47.438;19.026;2023-04-02T01:59:41;98838.06;;;8.69;100.00
54512;BME280;40419;47.438;19.026;2023-04-02T02:02:12;98844.09;;;8.64;100.00
54512;BME280;40419;47.438;19.026;2023-04-02T02:04:39;98841.84;;;8.61;100.00
54512;BME280;40419;47.438;19.026;2023-04-02T02:07:13;98843.72;;;8.61;100.00
54512;BME280;40419;47.438;19.026;2023-04-02T02:09:40;98845.72;;;8.72;100.00
54512;BME280;40419;47.438;19.026;2023-04-02T02:12:12;98849.81;;;8.81;100.00
54512;BME280;40419;47.438;19.026;2023-04-02T02:14:49;98856.94;;;8.76;100.00
54512;BME280;40419;47.438;19.026;2023-04-02T02:17:29;98854.66;;;8.73;100.00
54512;BME280;40419;47.438;19.026;2023-04-02T02:20:03;98841.56;;;8.76;100.00
54512;BME280;40419;47.438;19.026;2023-04-02T02:22:50;98839.44;;;8.85;100.00
54512;BME280;40419;47.438;19.026;2023-04-02T02:25:25;98843.78;;;8.86;100.00
54512;BME280;40419;47.438;19.026;2023-04-02T02:33:23;98847.75;;;8.83;100.00
54512;BME280;40419;47.438;19.026;2023-04-02T02:41:29;98856.28;;;8.74;100.00
54512;BME280;40419;47.438;19.026;2023-04-02T02:47:02;98870.22;;;8.77;100.00
54512;BME280;40419;47.438;19.026;2023-04-02T02:49:38;98866.88;;;8.75;100.00
54512;BME280;40419;47.438;19.026;2023-04-02T02:55:05;98862.53;;;8.74;100.00
54512;BME280;40419;47.438;19.026;2023-04-02T02:58:04;98858.59;;;8.70;100.00
54512;BME280;40419;47.438;19.026;2023-04-02T03:00:43;98855.09;;;8.63;100.00
54512;BME280;40419;47.438;19.026;2023-04-02T03:03:16;98862.38;;;8.62;100.00
54512;BME280;40419;47.438;19.026;2023-04-02T03:06:02;98859.47;;;8.64;100.00
54512;BME280;40419;47.438;19.026;2023-04-02T03:09:09;98862.78;;;8.66;100.00
54512;BME280;40419;47.438;19.026;2023-04-02T03:11:59;98860.66;;;8.75;100.00
54512;BME280;40419;47.438;19.026;2023-04-02T03:14:32;98857.81;;;8.63;100.00
54512;BME280;40419;47.438;19.026;2023-04-02T03:17:10;98849.31;;;8.59;100.00
54512;BME280;40419;47.438;19.026;2023-04-02T03:20:00;98851.00;;;8.54;100.00
54512;BME280;40419;47.438;19.026;2023-04-02T03:22:42;98853.31;;;8.50;100.00
54512;BME280;40419;47.438;19.026;2023-04-02T03:25:29;98858.66;;;8.57;100.00
54512;BME280;40419;47.438;19.026;2023-04-02T03:28:01;98864.88;;;8.57;100.00
54512;BME280;40419;47.438;19.026;2023-04-02T03:30:35;98848.13;;;8.48;100.00
54512;BME280;40419;47.438;19.026;2023-04-02T03:33:10;98863.91;;;8.38;100.00
54512;BME280;40419;47.438;19.026;2023-04-02T03:35:45;98861.81;;;8.47;100.00
54512;BME280;40419;47.438;19.026;2023-04-02T03:38:19;98856.44;;;8.33;100.00
54512;BME280;40419;47.438;19.026;2023-04-02T03:43:24;98879.28;;;8.31;100.00
54512;BME280;40419;47.438;19.026;2023-04-02T03:46:01;98881.78;;;8.26;100.00
54512;BME280;40419;47.438;19.026;2023-04-02T03:48:52;98890.94;;;8.11;100.00
54512;BME280;40419;47.438;19.026;2023-04-02T03:51:24;98880.75;;;8.13;100.00
54512;BME280;40419;47.438;19.026;2023-04-02T03:53:54;98887.22;;;8.06;100.00
54512;BME280;40419;47.438;19.026;2023-04-02T03:56:32;98886.78;;;8.09;100.00
54512;BME280;40419;47.438;19.026;2023-04-02T04:01:51;98886.16;;;8.00;100.00
54512;BME280;40419;47.438;19.026;2023-04-02T04:04:22;98887.22;;;7.99;100.00
54512;BME280;40419;47.438;19.026;2023-04-02T04:06:54;98895.72;;;8.09;100.00
54512;BME280;40419;47.438;19.026;2023-04-02T04:09:29;98893.44;;;7.99;100.00
54512;BME280;40419;47.438;19.026;2023-04-02T04:12:17;98894.69;;;7.90;100.00
54512;BME280;40419;47.438;19.026;2023-04-02T04:15:24;98907.13;;;7.85;100.00
54512;BME280;40419;47.438;19.026;2023-04-02T04:18:07;98895.53;;;7.71;100.00
54512;BME280;40419;47.438;19.026;2023-04-02T04:20:59;98905.28;;;7.85;100.00
54512;BME280;40419;47.438;19.026;2023-04-02T04:23:36;98898.63;;;7.88;100.00
54512;BME280;40419;47.438;19.026;2023-04-02T04:28:58;98907.72;;;8.13;100.00
54512;BME280;40419;47.438;19.026;2023-04-02T04:31:36;98914.78;;;8.01;100.00
54512;BME280;40419;47.438;19.026;2023-04-02T04:34:10;98914.78;;;8.01;100.00
54512;BME280;40419;47.438;19.026;2023-04-02T04:36:45;98923.47;;;8.23;100.00
54512;BME280;40419;47.438;19.026;2023-04-02T04:39:41;98933.00;;;8.46;100.00
54512;BME280;40419;47.438;19.026;2023-04-02T04:42:19;98936.53;;;8.46;100.00
54512;BME280;40419;47.438;19.026;2023-04-02T04:45:29;98938.41;;;8.32;100.00
54512;BME280;40419;47.438;19.026;2023-04-02T04:48:12;98938.44;;;8.12;100.00
54512;BME280;40419;47.438;19.026;2023-04-02T04:50:53;98938.78;;;8.43;100.00
54512;BME280;40419;47.438;19.026;2023-04-02T04:53:28;98935.41;;;8.67;100.00
54512;BME280;40419;47.438;19.026;2023-04-02T04:56:03;98934.03;;;9.03;100.00
54512;BME280;40419;47.438;19.026;2023-04-02T04:58:47;98929.56;;;9.22;100.00
54512;BME280;40419;47.438;19.026;2023-04-02T05:01:20;98928.78;;;9.47;100.00
54512;BME280;40419;47.438;19.026;2023-04-02T05:04:02;98929.06;;;9.64;100.00
54512;BME280;40419;47.438;19.026;2023-04-02T05:06:38;98926.50;;;10.01;100.00
54512;BME280;40419;47.438;19.026;2023-04-02T05:12:29;98937.06;;;9.78;100.00
54512;BME280;40419;47.438;19.026;2023-04-02T05:17:34;98927.63;;;9.87;100.00
54512;BME280;40419;47.438;19.026;2023-04-02T05:20:13;98945.34;;;9.83;100.00
54512;BME280;40419;47.438;19.026;2023-04-02T05:23:27;98944.63;;;10.19;100.00
54512;BME280;40419;47.438;19.026;2023-04-02T05:31:17;98943.69;;;10.51;100.00
54512;BME280;40419;47.438;19.026;2023-04-02T05:33:46;98940.16;;;10.69;100.00
54512;BME280;40419;47.438;19.026;2023-04-02T05:36:20;98935.06;;;10.79;99.05
54512;BME280;40419;47.438;19.026;2023-04-02T05:38:51;98948.00;;;10.77;98.28
54512;BME280;40419;47.438;19.026;2023-04-02T05:41:31;98932.56;;;10.77;98.99
54512;BME280;40419;47.438;19.026;2023-04-02T05:46:35;98940.09;;;10.94;98.22
54512;BME280;40419;47.438;19.026;2023-04-02T05:49:08;98947.13;;;11.13;97.91
54512;BME280;40419;47.438;19.026;2023-04-02T05:51:42;98947.25;;;11.18;96.12
54512;BME280;40419;47.438;19.026;2023-04-02T05:54:21;98959.94;;;10.88;98.97
54512;BME280;40419;47.438;19.026;2023-04-02T05:57:03;98958.84;;;10.77;97.96
54512;BME280;40419;47.438;19.026;2023-04-02T05:59:40;98963.81;;;10.61;99.71
54512;BME280;40419;47.438;19.026;2023-04-02T06:02:19;98969.44;;;10.60;100.00
54512;BME280;40419;47.438;19.026;2023-04-02T06:07:31;98961.53;;;10.58;100.00
54512;BME280;40419;47.438;19.026;2023-04-02T06:10:05;98975.00;;;10.65;100.00
54512;BME280;40419;47.438;19.026;2023-04-02T06:12:41;98974.31;;;10.51;100.00
54512;BME280;40419;47.438;19.026;2023-04-02T06:15:13;98973.63;;;10.37;100.00
54512;BME280;40419;47.438;19.026;2023-04-02T06:20:43;98976.19;;;10.51;100.00
54512;BME280;40419;47.438;19.026;2023-04-02T06:28:45;98975.13;;;10.33;100.00
54512;BME280;40419;47.438;19.026;2023-04-02T06:33:47;98988.38;;;10.60;100.00
54512;BME280;40419;47.438;19.026;2023-04-02T06:36:21;98985.75;;;10.72;100.00
54512;BME280;40419;47.438;19.026;2023-04-02T06:38:48;98992.81;;;10.73;100.00
54512;BME280;40419;47.438;19.026;2023-04-02T06:41:19;98996.97;;;10.75;100.00
54512;BME280;40419;47.438;19.026;2023-04-02T06:44:05;99000.34;;;10.89;100.00
54512;BME280;40419;47.438;19.026;2023-04-02T06:46:56;98998.19;;;10.79;99.24
54512;BME280;40419;47.438;19.026;2023-04-02T06:52:04;98995.22;;;10.99;100.00
54512;BME280;40419;47.438;19.026;2023-04-02T06:54:35;99003.13;;;11.01;100.00
54512;BME280;40419;47.438;19.026;2023-04-02T06:57:05;99007.38;;;11.27;97.68
54512;BME280;40419;47.438;19.026;2023-04-02T06:59:36;99013.19;;;11.12;98.64
54512;BME280;40419;47.438;19.026;2023-04-02T07:04:49;99007.38;;;11.27;97.89
54512;BME280;40419;47.438;19.026;2023-04-02T07:07:19;99004.28;;;11.42;96.70
54512;BME280;40419;47.438;19.026;2023-04-02T07:09:51;99007.13;;;11.47;97.30
54512;BME280;40419;47.438;19.026;2023-04-02T07:12:21;99006.84;;;11.37;95.54
54512;BME280;40419;47.438;19.026;2023-04-02T07:14:48;99008.53;;;11.50;97.67
54512;BME280;40419;47.438;19.026;2023-04-02T07:17:16;99006.63;;;11.69;95.72
54512;BME280;40419;47.438;19.026;2023-04-02T07:19:43;99015.97;;;11.55;98.21
54512;BME280;40419;47.438;19.026;2023-04-02T07:22:21;99020.25;;;11.62;96.88
54512;BME280;40419;47.438;19.026;2023-04-02T07:24:53;99015.38;;;11.83;95.55
54512;BME280;40419;47.438;19.026;2023-04-02T07:27:19;99018.91;;;11.72;95.45
54512;BME280;40419;47.438;19.026;2023-04-02T07:29:47;99026.19;;;11.71;95.17
54512;BME280;40419;47.438;19.026;2023-04-02T07:32:13;99017.13;;;11.77;95.40
54512;BME280;40419;47.438;19.026;2023-04-02T07:34:39;99021.31;;;11.92;95.11
54512;BME280;40419;47.438;19.026;2023-04-02T07:37:12;99026.69;;;11.80;94.77
54512;BME280;40419;47.438;19.026;2023-04-02T07:39:38;99023.00;;;12.04;94.87
54512;BME280;40419;47.438;19.026;2023-04-02T07:42:11;99026.81;;;12.15;94.41
54512;BME280;40419;47.438;19.026;2023-04-02T07:44:38;99031.88;;;12.23;94.21
54512;BME280;40419;47.438;19.026;2023-04-02T07:47:06;99037.91;;;12.37;91.69
54512;BME280;40419;47.438;19.026;2023-04-02T07:49:34;99033.94;;;12.52;92.89
54512;BME280;40419;47.438;19.026;2023-04-02T07:52:04;99043.25;;;12.44;92.00
54512;BME280;40419;47.438;19.026;2023-04-02T07:54:31;99040.75;;;12.78;91.03
54512;BME280;40419;47.438;19.026;2023-04-02T07:56:59;99045.59;;;12.76;90.54
54512;BME280;40419;47.438;19.026;2023-04-02T07:59:24;99042.28;;;12.74;88.60
54512;BME280;40419;47.438;19.026;2023-04-02T08:01:52;99047.59;;;12.57;91.71
54512;BME280;40419;47.438;19.026;2023-04-02T08:04:20;99042.03;;;12.87;89.49
54512;BME280;40419;47.438;19.026;2023-04-02T08:06:47;99045.31;;;13.01;89.63
54512;BME280;40419;47.438;19.026;2023-04-02T08:09:14;99051.25;;;12.98;88.01
54512;BME280;40419;47.438;19.026;2023-04-02T08:11:43;99052.31;;;12.97;90.22
54512;BME280;40419;47.438;19.026;2023-04-02T08:14:09;99055.81;;;13.21;88.68
54512;BME280;40419;47.438;19.026;2023-04-02T08:16:52;99055.69;;;13.28;88.04
54512;BME280;40419;47.438;19.026;2023-04-02T08:19:18;99063.13;;;13.21;88.70
54512;BME280;40419;47.438;19.026;2023-04-02T08:21:44;99057.91;;;13.31;91.32
54512;BME280;40419;47.438;19.026;2023-04-02T08:24:12;99062.75;;;13.53;89.94
54512;BME280;40419;47.438;19.026;2023-04-02T08:26:42;99066.69;;;13.33;88.11
54512;BME280;40419;47.438;19.026;2023-04-02T08:29:07;99065.34;;;13.47;86.95
54512;BME280;40419;47.438;19.026;2023-04-02T08:31:33;99066.97;;;13.60;88.59
54512;BME280;40419;47.438;19.026;2023-04-02T08:34:03;99078.97;;;13.76;86.46
54512;BME280;40419;47.438;19.026;2023-04-02T08:36:33;99066.22;;;13.77;87.41
54512;BME280;40419;47.438;19.026;2023-04-02T08:38:58;99069.78;;;13.65;85.75
54512;BME280;40419;47.438;19.026;2023-04-02T08:41:28;99072.66;;;13.88;87.34
54512;BME280;40419;47.438;19.026;2023-04-02T08:44:18;99073.63;;;13.81;86.99
54512;BME280;40419;47.438;19.026;2023-04-02T08:46:59;99077.09;;;13.77;85.70
54512;BME280;40419;47.438;19.026;2023-04-02T08:49:38;99077.25;;;13.87;86.12
54512;BME280;40419;47.438;19.026;2023-04-02T08:52:27;99077.22;;;13.70;86.95
54512;BME280;40419;47.438;19.026;2023-04-02T08:54:57;99081.97;;;13.92;89.33
54512;BME280;40419;47.438;19.026;2023-04-02T09:00:34;99086.41;;;13.81;88.01
54512;BME280;40419;47.438;19.026;2023-04-02T09:03:34;99079.59;;;13.95;84.95
54512;BME280;40419;47.438;19.026;2023-04-02T09:06:03;99085.47;;;14.04;85.32
54512;BME280;40419;47.438;19.026;2023-04-02T09:08:32;99093.19;;;14.24;87.44
54512;BME280;40419;47.438;19.026;2023-04-02T09:13:46;99088.91;;;14.45;82.74
54512;BME280;40419;47.438;19.026;2023-04-02T09:16:15;99093.34;;;14.34;81.71
54512;BME280;40419;47.438;19.026;2023-04-02T09:18:43;99083.22;;;14.30;84.65
54512;BME280;40419;47.438;19.026;2023-04-02T09:21:42;99100.53;;;14.41;84.22
54512;BME280;40419;47.438;19.026;2023-04-02T09:24:13;99094.94;;;14.64;84.82
54512;BME280;40419;47.438;19.026;2023-04-02T09:26:43;99087.16;;;14.22;84.38
54512;BME280;40419;47.438;19.026;2023-04-02T09:31:44;99098.50;;;14.19;83.53
54512;BME280;40419;47.438;19.026;2023-04-02T09:34:35;99103.41;;;13.88;86.34
54512;BME280;40419;47.438;19.026;2023-04-02T09:37:23;99104.28;;;13.77;88.75
54512;BME280;40419;47.438;19.026;2023-04-02T09:39:50;99116.28;;;13.93;85.66
54512;BME280;40419;47.438;19.026;2023-04-02T09:42:35;99116.84;;;13.95;85.94
54512;BME280;40419;47.438;19.026;2023-04-02T09:45:24;99117.06;;;14.05;85.95
54512;BME280;40419;47.438;19.026;2023-04-02T09:47:51;99115.91;;;14.01;85.86
54512;BME280;40419;47.438;19.026;2023-04-02T09:50:29;99119.16;;;14.15;86.15
54512;BME280;40419;47.438;19.026;2023-04-02T09:52:54;99112.38;;;13.89;86.85
54512;BME280;40419;47.438;19.026;2023-04-02T09:55:29;99114.69;;;13.80;88.59
54512;BME280;40419;47.438;19.026;2023-04-02T09:58:13;99125.00;;;13.66;88.30
54512;BME280;40419;47.438;19.026;2023-04-02T10:00:48;99123.16;;;13.31;89.40
54512;BME280;40419;47.438;19.026;2023-04-02T10:03:27;99125.56;;;13.39;86.59
54512;BME280;40419;47.438;19.026;2023-04-02T10:08:32;99128.38;;;13.21;89.83
54512;BME280;40419;47.438;19.026;2023-04-02T10:11:04;99120.78;;;13.46;90.28
54512;BME280;40419;47.438;19.026;2023-04-02T10:16:22;99117.38;;;13.27;90.43
54512;BME280;40419;47.438;19.026;2023-04-02T10:21:35;99116.19;;;13.23;89.94
54512;BME280;40419;47.438;19.026;2023-04-02T10:24:04;99120.00;;;13.34;89.56
54512;BME280;40419;47.438;19.026;2023-04-02T10:35:00;99113.84;;;13.39;89.74
54512;BME280;40419;47.438;19.026;2023-04-02T10:40:41;99116.75;;;13.61;90.63
54512;BME280;40419;47.438;19.026;2023-04-02T10:46:20;99113.25;;;13.49;94.62
54512;BME280;40419;47.438;19.026;2023-04-02T10:49:06;99117.34;;;13.51;94.71
54512;BME280;40419;47.438;19.026;2023-04-02T10:51:44;99118.34;;;13.33;94.59
54512;BME280;40419;47.438;19.026;2023-04-02T10:57:08;99123.66;;;13.40;92.47
54512;BME280;40419;47.438;19.026;2023-04-02T10:59:40;99115.56;;;13.57;92.32
54512;BME280;40419;47.438;19.026;2023-04-02T11:02:46;99114.84;;;13.61;91.15
54512;BME280;40419;47.438;19.026;2023-04-02T11:05:48;99119.16;;;13.86;90.40
54512;BME280;40419;47.438;19.026;2023-04-02T11:08:42;99122.91;;;13.97;84.83
54512;BME280;40419;47.438;19.026;2023-04-02T11:11:18;99122.69;;;14.15;81.93
54512;BME280;40419;47.438;19.026;2023-04-02T11:16:48;99113.72;;;14.15;82.93
54512;BME280;40419;47.438;19.026;2023-04-02T11:21:58;99099.69;;;14.69;80.20
54512;BME280;40419;47.438;19.026;2023-04-02T11:37:39;99076.00;;;15.53;77.53
54512;BME280;40419;47.438;19.026;2023-04-02T11:50:31;99093.50;;;15.79;74.66
54512;BME280;40419;47.438;19.026;2023-04-02T11:55:44;99078.03;;;15.63;74.61
54512;BME280;40419;47.438;19.026;2023-04-02T11:58:44;99089.00;;;15.68;74.90
54512;BME280;40419;47.438;19.026;2023-04-02T12:01:40;99084.00;;;15.82;73.54
54512;BME280;40419;47.438;19.026;2023-04-02T12:10:04;99073.72;;;15.89;69.65
54512;BME280;40419;47.438;19.026;2023-04-02T12:12:39;99072.78;;;16.05;68.48
54512;BME280;40419;47.438;19.026;2023-04-02T12:15:07;99067.56;;;16.04;69.44
54512;BME280;40419;47.438;19.026;2023-04-02T12:17:52;99066.53;;;16.10;68.33
54512;BME280;40419;47.438;19.026;2023-04-02T12:20:23;99079.16;;;15.89;64.86
54512;BME280;40419;47.438;19.026;2023-04-02T12:22:53;99079.13;;;15.84;66.08
54512;BME280;40419;47.438;19.026;2023-04-02T12:25:34;99076.06;;;15.80;65.67
54512;BME280;40419;47.438;19.026;2023-04-02T12:30:38;99066.28;;;15.18;70.61
54512;BME280;40419;47.438;19.026;2023-04-02T12:33:33;99060.91;;;15.45;69.42
54512;BME280;40419;47.438;19.026;2023-04-02T12:36:18;99066.22;;;15.35;68.78
54512;BME280;40419;47.438;19.026;2023-04-02T12:41:22;99054.94;;;15.26;70.49
54512;BME280;40419;47.438;19.026;2023-04-02T12:44:14;99058.31;;;15.33;71.69
54512;BME280;40419;47.438;19.026;2023-04-02T12:46:47;99058.69;;;15.42;71.87
54512;BME280;40419;47.438;19.026;2023-04-02T12:52:08;99048.72;;;15.31;70.20
54512;BME280;40419;47.438;19.026;2023-04-02T12:54:50;99051.19;;;15.54;70.10
54512;BME280;40419;47.438;19.026;2023-04-02T12:59:54;99040.28;;;15.54;66.39
54512;BME280;40419;47.438;19.026;2023-04-02T13:02:28;99044.50;;;15.40;68.60
54512;BME280;40419;47.438;19.026;2023-04-02T13:04:59;99052.34;;;15.58;68.72
54512;BME280;40419;47.438;19.026;2023-04-02T13:07:30;99047.00;;;15.69;66.57
54512;BME280;40419;47.438;19.026;2023-04-02T13:10:01;99048.53;;;15.15;63.73
54512;BME280;40419;47.438;19.026;2023-04-02T13:14:58;99055.56;;;15.11;66.36
54512;BME280;40419;47.438;19.026;2023-04-02T13:18:00;99055.84;;;14.93;67.06
54512;BME280;40419;47.438;19.026;2023-04-02T13:22:51;99050.34;;;15.10;68.14
54512;BME280;40419;47.438;19.026;2023-04-02T13:25:26;99056.00;;;15.03;68.82
54512;BME280;40419;47.438;19.026;2023-04-02T13:27:52;99062.75;;;15.17;67.39
54512;BME280;40419;47.438;19.026;2023-04-02T13:30:25;99060.53;;;15.14;67.94
54512;BME280;40419;47.438;19.026;2023-04-02T13:32:54;99053.34;;;15.08;69.08
54512;BME280;40419;47.438;19.026;2023-04-02T13:35:22;99063.13;;;15.26;71.67
54512;BME280;40419;47.438;19.026;2023-04-02T13:37:51;99062.56;;;15.24;72.31
54512;BME280;40419;47.438;19.026;2023-04-02T13:40:21;99059.94;;;15.56;68.80
54512;BME280;40419;47.438;19.026;2023-04-02T13:42:47;99056.78;;;15.42;72.13
54512;BME280;40419;47.438;19.026;2023-04-02T13:47:53;99072.34;;;15.03;70.02
54512;BME280;40419;47.438;19.026;2023-04-02T13:50:22;99067.72;;;15.03;69.94
54512;BME280;40419;47.438;19.026;2023-04-02T13:52:52;99075.66;;;15.05;66.99
54512;BME280;40419;47.438;19.026;2023-04-02T13:55:21;99058.28;;;15.11;68.08
54512;BME280;40419;47.438;19.026;2023-04-02T13:57:48;99077.25;;;15.01;67.55
54512;BME280;40419;47.438;19.026;2023-04-02T14:00:22;99071.50;;;15.19;69.65
54512;BME280;40419;47.438;19.026;2023-04-02T14:03:17;99071.66;;;14.91;73.84
54512;BME280;40419;47.438;19.026;2023-04-02T14:19:43;99065.94;;;14.41;77.88
54512;BME280;40419;47.438;19.026;2023-04-02T14:25:02;99069.81;;;14.11;75.87
54512;BME280;40419;47.438;19.026;2023-04-02T14:27:45;99070.34;;;13.96;77.77
54512;BME280;40419;47.438;19.026;2023-04-02T14:43:44;99084.56;;;13.70;80.52
54512;BME280;40419;47.438;19.026;2023-04-02T14:46:18;99088.66;;;13.72;78.05
54512;BME280;40419;47.438;19.026;2023-04-02T14:54:16;99104.69;;;13.57;76.50
54512;BME280;40419;47.438;19.026;2023-04-02T14:56:53;99110.69;;;13.71;75.69
54512;BME280;40419;47.438;19.026;2023-04-02T15:05:03;99120.38;;;13.38;79.77
54512;BME280;40419;47.438;19.026;2023-04-02T15:07:55;99119.75;;;13.36;82.40
54512;BME280;40419;47.438;19.026;2023-04-02T15:10:33;99124.00;;;13.32;82.94
54512;BME280;40419;47.438;19.026;2023-04-02T15:13:05;99129.22;;;13.21;84.71
54512;BME280;40419;47.438;19.026;2023-04-02T15:18:16;99136.91;;;13.01;87.38
54512;BME280;40419;47.438;19.026;2023-04-02T15:31:44;99177.09;;;11.22;100.00
54512;BME280;40419;47.438;19.026;2023-04-02T15:36:54;99236.59;;;10.14;100.00
54512;BME280;40419;47.438;19.026;2023-04-02T15:39:33;99233.16;;;9.93;100.00
54512;BME280;40419;47.438;19.026;2023-04-02T15:45:14;99219.44;;;9.88;100.00
54512;BME280;40419;47.438;19.026;2023-04-02T16:04:25;99195.22;;;10.07;100.00
54512;BME280;40419;47.438;19.026;2023-04-02T16:12:24;99183.13;;;10.16;100.00
54512;BME280;40419;47.438;19.026;2023-04-02T16:14:58;99178.78;;;10.08;100.00
54512;BME280;40419;47.438;19.026;2023-04-02T16:17:44;99170.28;;;10.43;100.00
54512;BME280;40419;47.438;19.026;2023-04-02T16:20:25;99179.84;;;10.71;100.00
54512;BME280;40419;47.438;19.026;2023-04-02T16:22:59;99180.56;;;10.85;100.00
54512;BME280;40419;47.438;19.026;2023-04-02T16:25:34;99182.09;;;10.81;100.00
54512;BME280;40419;47.438;19.026;2023-04-02T16:31:45;99195.94;;;10.91;100.00
54512;BME280;40419;47.438;19.026;2023-04-02T16:34:40;99188.91;;;10.84;100.00
54512;BME280;40419;47.438;19.026;2023-04-02T16:37:39;99194.88;;;10.92;100.00
54512;BME280;40419;47.438;19.026;2023-04-02T16:53:30;99230.91;;;10.68;100.00
54512;BME280;40419;47.438;19.026;2023-04-02T16:59:10;99233.81;;;10.27;100.00
54512;BME280;40419;47.438;19.026;2023-04-02T17:09:55;99258.44;;;10.19;100.00
54512;BME280;40419;47.438;19.026;2023-04-02T17:12:37;99257.84;;;10.04;100.00
54512;BME280;40419;47.438;19.026;2023-04-02T17:15:31;99272.84;;;10.06;100.00
54512;BME280;40419;47.438;19.026;2023-04-02T17:18:00;99273.25;;;10.10;100.00
54512;BME280;40419;47.438;19.026;2023-04-02T17:20:28;99274.47;;;10.14;100.00
54512;BME280;40419;47.438;19.026;2023-04-02T17:22:54;99275.75;;;10.05;100.00
54512;BME280;40419;47.438;19.026;2023-04-02T17:25:32;99272.66;;;10.01;100.00
54512;BME280;40419;47.438;19.026;2023-04-02T17:28:02;99275.59;;;9.86;100.00
54512;BME280;40419;47.438;19.026;2023-04-02T17:30:37;99277.88;;;9.89;100.00
54512;BME280;40419;47.438;19.026;2023-04-02T17:33:18;99286.22;;;9.88;100.00
54512;BME280;40419;47.438;19.026;2023-04-02T17:40:57;99295.41;;;9.67;100.00
54512;BME280;40419;47.438;19.026;2023-04-02T17:43:38;99300.78;;;9.73;100.00
54512;BME280;40419;47.438;19.026;2023-04-02T17:52:04;99300.00;;;9.33;100.00
54512;BME280;40419;47.438;19.026;2023-04-02T17:57:51;99308.94;;;9.13;100.00
54512;BME280;40419;47.438;19.026;2023-04-02T18:00:40;99316.00;;;8.94;100.00
54512;BME280;40419;47.438;19.026;2023-04-02T18:03:44;99323.03;;;8.89;100.00
54512;BME280;40419;47.438;19.026;2023-04-02T18:11:54;99329.84;;;8.64;100.00
54512;BME280;40419;47.438;19.026;2023-04-02T18:20:37;99355.69;;;8.45;100.00
54512;BME280;40419;47.438;19.026;2023-04-02T18:29:14;99382.56;;;8.25;100.00
54512;BME280;40419;47.438;19.026;2023-04-02T18:46:06;99403.16;;;8.33;100.00
54512;BME280;40419;47.438;19.026;2023-04-02T18:51:22;99409.72;;;8.24;100.00
54512;BME280;40419;47.438;19.026;2023-04-02T18:54:06;99414.50;;;8.22;100.00
54512;BME280;40419;47.438;19.026;2023-04-02T18:56:41;99416.22;;;8.01;100.00
54512;BME280;40419;47.438;19.026;2023-04-02T19:04:43;99421.22;;;8.04;100.00
54512;BME280;40419;47.438;19.026;2023-04-02T19:07:15;99423.31;;;8.02;100.00
54512;BME280;40419;47.438;19.026;2023-04-02T19:09:44;99427.66;;;8.03;100.00